createdAt,value
2023-02-23T00:02:22.509Z,3.81
2023-02-23T00:04:50.924Z,3.78
2023-02-23T00:07:22.399Z,3.80
2023-02-23T00:09:51.837Z,3.78
2023-02-23T00:12:21.032Z,3.77
2023-02-23T00:14:49.356Z,3.76
2023-02-23T00:17:17.860Z,3.77
2023-02-23T00:19:49.626Z,3.75
2023-02-23T00:22:19.116Z,3.74
2023-02-23T00:24:48.165Z,3.74
2023-02-23T00:27:21.402Z,3.73
2023-02-23T00:29:50.518Z,3.71
2023-02-23T00:32:20.478Z,3.69
2023-02-23T00:34:52.630Z,3.68
2023-02-23T00:37:23.277Z,3.67
2023-02-23T00:39:53.179Z,3.64
2023-02-23T00:42:22.186Z,3.64
2023-02-23T00:44:51.275Z,3.60
2023-02-23T00:47:19.836Z,3.58
2023-02-23T00:49:48.271Z,3.57
2023-02-23T00:52:16.507Z,3.55
2023-02-23T00:54:45.378Z,3.53
2023-02-23T00:57:14.198Z,3.52
2023-02-23T00:59:43.221Z,3.52
2023-02-23T01:02:11.704Z,3.51
2023-02-23T01:04:40.550Z,3.51
2023-02-23T01:07:09.102Z,3.51
2023-02-23T01:09:38.443Z,3.48
2023-02-23T01:12:07.844Z,3.50
2023-02-23T01:14:38.373Z,3.50
2023-02-23T01:17:08.322Z,3.50
2023-02-23T01:19:37.471Z,3.44
2023-02-23T01:22:06.992Z,3.45
2023-02-23T01:24:35.530Z,3.43
2023-02-23T01:27:03.831Z,3.39
2023-02-23T01:29:32.501Z,3.38
2023-02-23T01:32:03.268Z,3.38
2023-02-23T01:34:33.038Z,3.38
2023-02-23T01:37:01.806Z,3.35
2023-02-23T01:39:30.284Z,3.38
2023-02-23T01:41:59.557Z,3.39
2023-02-23T01:44:35.135Z,3.37
2023-02-23T01:47:05.059Z,3.34
2023-02-23T01:49:37.725Z,3.32
2023-02-23T01:52:16.848Z,3.31
2023-02-23T01:54:56.221Z,3.28
2023-02-23T01:57:25.440Z,3.24
2023-02-23T01:59:55.420Z,3.25
2023-02-23T02:02:34.098Z,3.21
2023-02-23T02:05:04.832Z,3.17
2023-02-23T02:07:36.337Z,3.18
2023-02-23T02:10:14.291Z,3.16
2023-02-23T02:12:52.806Z,3.14
2023-02-23T02:15:26.536Z,3.13
2023-02-23T02:18:19.390Z,3.14
2023-02-23T02:21:12.185Z,3.12
2023-02-23T02:24:10.841Z,3.23
2023-02-23T02:26:55.627Z,3.18
2023-02-23T02:29:39.368Z,3.20
2023-02-23T02:32:37.514Z,3.21
2023-02-23T02:35:41.501Z,3.19
2023-02-23T02:38:26.440Z,3.15
2023-02-23T02:41:04.365Z,3.15
2023-02-23T02:43:51.262Z,3.16
2023-02-23T02:46:29.693Z,3.14
2023-02-23T02:49:07.579Z,3.14
2023-02-23T02:51:59.459Z,3.10
2023-02-23T02:54:56.766Z,3.06
2023-02-23T02:57:28.329Z,3.02
2023-02-23T03:00:16.991Z,3.03
2023-02-23T03:03:05.048Z,2.97
2023-02-23T03:06:09.256Z,2.94
2023-02-23T03:09:20.814Z,2.89
2023-02-23T03:12:42.383Z,2.84
2023-02-23T03:15:59.762Z,2.77
2023-02-23T03:18:53.771Z,2.75
2023-02-23T03:21:47.619Z,2.78
2023-02-23T03:24:52.655Z,2.79
2023-02-23T03:27:45.967Z,2.93
2023-02-23T03:30:45.770Z,2.97
2023-02-23T03:33:39.006Z,2.95
2023-02-23T03:36:40.444Z,2.96
2023-02-23T03:39:52.968Z,2.93
2023-02-23T03:42:46.738Z,2.93
2023-02-23T03:45:38.854Z,2.95
2023-02-23T03:48:29.487Z,2.94
2023-02-23T03:51:22.398Z,2.91
2023-02-23T03:54:18.037Z,2.89
2023-02-23T03:57:10.717Z,2.83
2023-02-23T04:00:03.472Z,2.78
2023-02-23T04:02:53.962Z,2.78
2023-02-23T04:05:43.046Z,2.78
2023-02-23T04:08:35.122Z,2.79
2023-02-23T04:12:01.368Z,2.78
2023-02-23T04:14:40.360Z,2.65
2023-02-23T04:17:11.323Z,2.72
2023-02-23T04:19:48.952Z,2.76
2023-02-23T04:22:19.220Z,2.80
2023-02-23T04:24:48.837Z,2.95
2023-02-23T04:27:18.402Z,2.98
2023-02-23T04:29:47.040Z,2.96
2023-02-23T04:32:19.132Z,2.97
2023-02-23T04:34:47.486Z,2.98
2023-02-23T04:37:16.739Z,2.98
2023-02-23T04:39:48.761Z,2.97
2023-02-23T04:42:18.661Z,2.96
2023-02-23T04:44:47.159Z,2.93
2023-02-23T04:47:16.933Z,2.92
2023-02-23T04:49:45.136Z,2.87
2023-02-23T04:52:13.692Z,2.86
2023-02-23T04:54:42.810Z,2.84
2023-02-23T04:57:12.221Z,2.84
2023-02-23T04:59:40.482Z,2.80
2023-02-23T05:02:09.238Z,2.79
2023-02-23T05:04:37.761Z,2.85
2023-02-23T05:07:06.592Z,2.93
2023-02-23T05:09:35.497Z,2.90
2023-02-23T05:12:04.180Z,2.89
2023-02-23T05:14:32.990Z,2.91
2023-02-23T05:17:01.821Z,2.92
2023-02-23T05:19:30.641Z,2.92
2023-02-23T05:21:58.857Z,2.91
2023-02-23T05:24:27.080Z,2.88
2023-02-23T05:26:55.386Z,2.87
2023-02-23T05:29:23.783Z,2.84
2023-02-23T05:31:53.286Z,2.84
2023-02-23T05:34:22.398Z,2.81
2023-02-23T05:36:50.621Z,2.77
2023-02-23T05:39:19.224Z,2.73
2023-02-23T05:41:47.874Z,2.72
2023-02-23T05:44:16.419Z,2.82
2023-02-23T05:46:48.090Z,2.89
2023-02-23T05:49:16.814Z,2.88
2023-02-23T05:51:45.511Z,2.87
2023-02-23T05:54:14.489Z,2.86
2023-02-23T05:56:44.213Z,2.86
2023-02-23T05:59:13.951Z,2.85
2023-02-23T06:01:42.874Z,2.85
2023-02-23T06:04:11.101Z,2.84
2023-02-23T06:06:39.425Z,2.84
2023-02-23T06:09:08.655Z,2.84
2023-02-23T06:11:36.991Z,2.83
2023-02-23T06:14:05.484Z,2.83
2023-02-23T06:16:33.970Z,2.81
2023-02-23T06:19:02.361Z,2.80
2023-02-23T06:21:31.274Z,2.82
2023-02-23T06:24:02.606Z,2.82
2023-02-23T06:26:30.961Z,2.84
2023-02-23T06:28:59.531Z,2.91
2023-02-23T06:31:27.708Z,3.07
2023-02-23T06:33:56.075Z,3.12
2023-02-23T06:36:26.383Z,3.10
2023-02-23T06:38:59.951Z,3.12
2023-02-23T06:41:27.985Z,3.15
2023-02-23T06:43:56.340Z,3.18
2023-02-23T06:46:25.749Z,3.21
2023-02-23T06:48:58.122Z,3.25
2023-02-23T06:51:26.956Z,3.27
2023-02-23T06:53:55.413Z,3.29
2023-02-23T06:56:24.275Z,3.33
2023-02-23T06:58:54.169Z,3.35
2023-02-23T07:01:23.357Z,3.33
2023-02-23T07:03:53.079Z,3.34
2023-02-23T07:06:21.546Z,3.34
2023-02-23T07:08:50.220Z,3.36
2023-02-23T07:11:20.178Z,3.39
2023-02-23T07:13:48.974Z,3.42
2023-02-23T07:16:17.757Z,3.43
2023-02-23T07:18:46.070Z,3.44
2023-02-23T07:21:14.599Z,3.46
2023-02-23T07:23:43.019Z,3.48
2023-02-23T07:26:12.637Z,3.50
2023-02-23T07:28:41.618Z,3.53
2023-02-23T07:31:10.515Z,3.54
2023-02-23T07:33:39.217Z,3.54
2023-02-23T07:36:08.366Z,3.59
2023-02-23T07:38:37.572Z,3.62
2023-02-23T07:41:09.058Z,3.64
2023-02-23T07:43:37.871Z,3.67
2023-02-23T07:46:09.405Z,3.71
2023-02-23T07:48:42.449Z,3.75
2023-02-23T07:51:16.224Z,3.78
2023-02-23T07:53:45.218Z,3.78
2023-02-23T07:56:15.470Z,3.79
2023-02-23T07:58:45.067Z,3.80
2023-02-23T08:01:17.735Z,3.85
2023-02-23T08:03:49.984Z,3.87
2023-02-23T08:06:19.709Z,3.90
2023-02-23T08:08:48.904Z,3.88
2023-02-23T08:11:18.909Z,3.88
2023-02-23T08:13:49.836Z,3.90
2023-02-23T08:16:21.743Z,3.90
2023-02-23T08:18:55.591Z,3.91
2023-02-23T08:21:30.395Z,3.95
2023-02-23T08:24:00.865Z,4.00
2023-02-23T08:26:38.253Z,3.94
2023-02-23T08:29:12.278Z,4.00
2023-02-23T08:31:47.551Z,4.09
2023-02-23T08:34:22.811Z,4.13
2023-02-23T08:37:00.060Z,4.05
2023-02-23T08:39:35.599Z,4.13
2023-02-23T08:42:05.946Z,4.11
2023-02-23T08:44:37.775Z,4.19
2023-02-23T08:47:10.036Z,4.28
2023-02-23T08:49:40.613Z,4.36
2023-02-23T08:52:14.592Z,4.42
2023-02-23T08:54:54.297Z,4.50
2023-02-23T08:57:28.880Z,4.56
2023-02-23T09:00:02.380Z,4.58
2023-02-23T09:02:31.593Z,4.64
2023-02-23T09:04:59.967Z,4.71
2023-02-23T09:07:28.495Z,4.84
2023-02-23T09:10:00.123Z,4.91
2023-02-23T09:12:28.618Z,5.00
2023-02-23T09:14:57.169Z,5.10
2023-02-23T09:17:26.600Z,5.21
2023-02-23T09:19:55.256Z,5.33
2023-02-23T09:22:23.982Z,5.38
2023-02-23T09:24:53.781Z,5.36
2023-02-23T09:27:22.670Z,5.48
2023-02-23T09:29:51.309Z,5.56
2023-02-23T09:32:20.191Z,5.63
2023-02-23T09:34:49.039Z,5.71
2023-02-23T09:37:17.600Z,5.83
2023-02-23T09:39:49.811Z,5.87
2023-02-23T09:42:50.743Z,5.98
2023-02-23T09:45:31.147Z,6.01
2023-02-23T09:48:13.196Z,6.12
2023-02-23T09:50:45.566Z,6.19
2023-02-23T09:53:36.723Z,6.30
2023-02-23T09:56:30.261Z,6.36
2023-02-23T09:59:01.083Z,6.30
2023-02-23T10:01:29.646Z,6.46
2023-02-23T10:04:17.035Z,6.54
2023-02-23T10:06:55.196Z,6.58
2023-02-23T10:09:46.543Z,6.73
2023-02-23T10:12:40.816Z,6.82
2023-02-23T10:15:19.720Z,6.88
2023-02-23T10:18:10.333Z,7.01
2023-02-23T10:20:51.190Z,7.12
2023-02-23T10:23:53.950Z,7.20
2023-02-23T10:26:32.293Z,7.27
2023-02-23T10:29:00.882Z,7.41
2023-02-23T10:31:48.024Z,7.50
2023-02-23T10:34:23.148Z,7.54
2023-02-23T10:37:05.011Z,7.61
2023-02-23T10:39:34.282Z,7.70
2023-02-23T10:42:06.658Z,7.81
2023-02-23T10:44:34.860Z,7.87
2023-02-23T10:47:14.896Z,8.03
2023-02-23T10:49:50.731Z,8.20
2023-02-23T10:52:25.150Z,8.36
2023-02-23T10:54:54.476Z,8.54
2023-02-23T10:57:33.414Z,8.72
2023-02-23T11:00:04.452Z,8.84
2023-02-23T11:02:36.775Z,8.96
2023-02-23T11:05:06.927Z,9.11
2023-02-23T11:07:35.925Z,9.24
2023-02-23T11:10:29.952Z,9.33
2023-02-23T11:12:58.971Z,9.40
2023-02-23T11:15:48.107Z,9.58
2023-02-23T11:18:25.484Z,9.70
2023-02-23T11:20:58.203Z,9.81
2023-02-23T11:23:37.392Z,9.94
2023-02-23T11:26:36.658Z,10.03
2023-02-23T11:29:35.438Z,10.22
2023-02-23T11:32:22.868Z,10.45
2023-02-23T11:35:27.372Z,10.70
2023-02-23T11:37:56.280Z,10.99
2023-02-23T11:40:29.516Z,11.62
2023-02-23T11:43:17.364Z,12.75
2023-02-23T11:45:54.763Z,14.16
2023-02-23T11:48:30.683Z,15.44
2023-02-23T11:51:00.462Z,16.99
2023-02-23T11:53:31.738Z,18.34
2023-02-23T11:56:08.412Z,19.59
2023-02-23T11:58:45.973Z,20.81
2023-02-23T12:01:45.131Z,21.52
2023-02-23T12:04:47.842Z,21.81
2023-02-23T12:07:39.190Z,22.72
2023-02-23T12:10:20.216Z,23.42
2023-02-23T12:12:58.708Z,24.17
2023-02-23T12:15:36.439Z,24.67
2023-02-23T12:18:16.417Z,25.19
2023-02-23T12:20:49.996Z,25.71
2023-02-23T12:23:28.400Z,25.99
2023-02-23T12:26:06.978Z,26.03
2023-02-23T12:28:51.028Z,26.02
2023-02-23T12:31:30.392Z,26.02
2023-02-23T12:34:25.955Z,26.37
2023-02-23T12:37:13.927Z,26.85
2023-02-23T12:39:49.468Z,26.83
2023-02-23T12:42:36.248Z,26.77
2023-02-23T12:45:06.954Z,25.96
2023-02-23T12:47:52.766Z,24.99
2023-02-23T12:50:50.786Z,24.45
2023-02-23T12:53:38.706Z,24.55
2023-02-23T12:56:41.669Z,24.46
2023-02-23T12:59:35.869Z,24.19
2023-02-23T13:02:34.605Z,23.68
2023-02-23T13:05:27.283Z,22.68
2023-02-23T13:08:15.356Z,22.26
2023-02-23T13:10:51.341Z,21.95
2023-02-23T13:13:38.303Z,21.53
2023-02-23T13:16:17.157Z,20.91
2023-02-23T13:18:48.146Z,20.17
2023-02-23T13:21:32.369Z,19.79
2023-02-23T13:24:13.370Z,19.41
2023-02-23T13:27:07.400Z,18.83
2023-02-23T13:29:43.915Z,18.38
2023-02-23T13:32:16.573Z,18.02
2023-02-23T13:34:58.709Z,17.39
2023-02-23T13:37:50.618Z,16.60
2023-02-23T13:40:29.515Z,15.82
2023-02-23T13:43:17.967Z,15.17
2023-02-23T13:46:45.661Z,14.41
2023-02-23T13:49:32.469Z,13.91
2023-02-23T13:52:21.630Z,13.56
2023-02-23T13:55:04.236Z,13.16
2023-02-23T13:57:34.008Z,13.01
2023-02-23T14:00:03.224Z,12.94
2023-02-23T14:02:41.733Z,12.76
2023-02-23T14:05:29.465Z,12.36
2023-02-23T14:08:04.851Z,12.32
2023-02-23T14:10:40.892Z,12.21
2023-02-23T14:13:15.871Z,12.02
2023-02-23T14:16:10.057Z,11.72
2023-02-23T14:19:07.991Z,11.39
2023-02-23T14:21:59.185Z,11.17
2023-02-23T14:24:28.770Z,11.21
2023-02-23T14:27:16.219Z,11.24
2023-02-23T14:30:13.821Z,11.24
2023-02-23T14:32:45.570Z,11.17
2023-02-23T14:35:33.215Z,11.19
2023-02-23T14:38:45.801Z,11.14
2023-02-23T14:41:29.874Z,10.98
2023-02-23T14:44:27.281Z,11.02
2023-02-23T14:47:00.846Z,10.96
2023-02-23T14:49:35.913Z,10.96
2023-02-23T14:52:12.732Z,10.89
2023-02-23T14:54:43.180Z,10.73
2023-02-23T14:57:26.082Z,10.70
2023-02-23T15:00:00.658Z,10.65
2023-02-23T15:02:30.921Z,10.61
2023-02-23T15:04:59.768Z,10.54
2023-02-23T15:07:41.965Z,10.48
2023-02-23T15:10:19.780Z,10.32
2023-02-23T15:12:49.449Z,10.24
2023-02-23T15:15:22.379Z,10.17
2023-02-23T15:17:55.693Z,10.11
2023-02-23T15:20:32.898Z,10.03
2023-02-23T15:23:04.758Z,10.01
2023-02-23T15:25:37.134Z,10.02
2023-02-23T15:28:22.881Z,10.00
2023-02-23T15:30:54.645Z,9.91
2023-02-23T15:33:29.238Z,9.85
2023-02-23T15:36:15.598Z,9.83
2023-02-23T15:38:55.697Z,9.80
2023-02-23T15:41:38.077Z,9.78
2023-02-23T15:44:12.741Z,9.73
2023-02-23T15:46:43.127Z,9.71
2023-02-23T15:49:14.819Z,9.70
2023-02-23T15:51:59.719Z,9.69
2023-02-23T15:54:38.452Z,9.61
2023-02-23T15:57:14.433Z,9.57
2023-02-23T15:59:48.251Z,9.42
2023-02-23T16:02:20.745Z,9.48
2023-02-23T16:04:50.658Z,9.49
2023-02-23T16:07:25.421Z,9.61
2023-02-23T16:10:03.231Z,9.65
2023-02-23T16:12:33.455Z,9.60
2023-02-23T16:15:07.447Z,9.61
2023-02-23T16:17:47.932Z,9.58
2023-02-23T16:20:38.893Z,9.53
2023-02-23T16:23:17.763Z,9.54
2023-02-23T16:25:54.839Z,9.67
2023-02-23T16:28:27.594Z,9.62
2023-02-23T16:31:03.044Z,9.60
2023-02-23T16:33:42.561Z,9.55
2023-02-23T16:36:11.002Z,9.47
2023-02-23T16:39:00.695Z,9.53
2023-02-23T16:41:34.871Z,9.53
2023-02-23T16:44:06.694Z,9.51
2023-02-23T16:47:18.397Z,9.45
2023-02-23T16:49:46.922Z,9.26
2023-02-23T16:52:24.562Z,9.32
2023-02-23T16:54:55.728Z,9.40
2023-02-23T16:57:31.167Z,9.43
2023-02-23T17:00:02.825Z,9.37
2023-02-23T17:02:31.376Z,9.32
2023-02-23T17:05:00.041Z,9.27
2023-02-23T17:07:28.592Z,9.33
2023-02-23T17:10:00.015Z,9.42
2023-02-23T17:12:28.681Z,9.38
2023-02-23T17:14:59.191Z,9.38
2023-02-23T17:17:27.554Z,9.33
2023-02-23T17:19:56.215Z,9.32
2023-02-23T17:22:25.161Z,9.39
2023-02-23T17:24:55.684Z,9.34
2023-02-23T17:27:27.224Z,9.30
2023-02-23T17:29:56.090Z,9.23
2023-02-23T17:32:25.562Z,9.23
2023-02-23T17:34:54.531Z,9.28
2023-02-23T17:37:22.978Z,9.31
2023-02-23T17:39:51.480Z,9.21
2023-02-23T17:42:20.179Z,9.19
2023-02-23T17:44:48.538Z,9.12
2023-02-23T17:47:17.317Z,9.13
2023-02-23T17:49:46.790Z,9.21
2023-02-23T17:52:15.222Z,9.13
2023-02-23T17:54:44.792Z,9.02
2023-02-23T17:57:14.003Z,9.02
2023-02-23T17:59:43.574Z,9.07
2023-02-23T18:02:19.505Z,9.12
2023-02-23T18:04:52.261Z,9.19
2023-02-23T18:07:22.316Z,9.20
2023-02-23T18:09:51.058Z,9.20
2023-02-23T18:12:21.011Z,9.21
2023-02-23T18:14:52.197Z,9.22
2023-02-23T18:17:20.805Z,9.29
2023-02-23T18:19:48.964Z,9.31
2023-02-23T18:22:20.241Z,9.24
2023-02-23T18:24:48.667Z,9.22
2023-02-23T18:27:17.905Z,9.19
2023-02-23T18:29:48.675Z,9.27
2023-02-23T18:32:17.616Z,9.30
2023-02-23T18:34:46.934Z,9.22
2023-02-23T18:37:25.696Z,9.20
2023-02-23T18:39:57.609Z,9.15
2023-02-23T18:42:26.923Z,9.25
2023-02-23T18:44:55.653Z,9.33
2023-02-23T18:47:24.681Z,9.26
2023-02-23T18:49:53.476Z,9.20
2023-02-23T18:52:22.402Z,9.18
2023-02-23T18:54:51.244Z,9.21
2023-02-23T18:57:20.030Z,9.28
2023-02-23T18:59:48.532Z,9.17
2023-02-23T19:02:18.998Z,9.04
2023-02-23T19:04:47.248Z,9.07
2023-02-23T19:07:16.201Z,9.10
2023-02-23T19:09:47.493Z,9.09
2023-02-23T19:12:15.820Z,9.02
2023-02-23T19:14:49.682Z,8.94
2023-02-23T19:17:20.933Z,8.79
2023-02-23T19:19:50.911Z,8.75
2023-02-23T19:22:24.118Z,9.00
2023-02-23T19:24:53.136Z,8.89
2023-02-23T19:27:23.485Z,8.80
2023-02-23T19:29:53.182Z,8.87
2023-02-23T19:32:23.952Z,8.99
2023-02-23T19:34:52.533Z,9.12
2023-02-23T19:37:21.341Z,8.99
2023-02-23T19:39:50.824Z,9.00
2023-02-23T19:42:21.284Z,8.94
2023-02-23T19:44:49.626Z,9.05
2023-02-23T19:47:18.229Z,9.04
2023-02-23T19:49:47.047Z,8.95
2023-02-23T19:52:15.396Z,8.76
2023-02-23T19:54:45.304Z,8.79
2023-02-23T19:57:16.067Z,8.95
2023-02-23T19:59:45.013Z,8.90
2023-02-23T20:02:13.510Z,8.89
2023-02-23T20:04:41.976Z,8.90
2023-02-23T20:07:11.871Z,9.01
2023-02-23T20:09:46.049Z,9.05
2023-02-23T20:12:14.883Z,8.82
2023-02-23T20:14:44.205Z,8.87
2023-02-23T20:17:13.902Z,8.90
2023-02-23T20:19:42.429Z,8.98
2023-02-23T20:22:10.858Z,8.95
2023-02-23T20:24:42.488Z,8.88
2023-02-23T20:27:10.970Z,8.84
2023-02-23T20:29:39.374Z,8.89
2023-02-23T20:32:08.069Z,8.98
2023-02-23T20:34:39.549Z,8.96
2023-02-23T20:37:08.251Z,8.88
2023-02-23T20:39:36.674Z,8.85
2023-02-23T20:42:05.396Z,8.98
2023-02-23T20:44:35.436Z,8.93
2023-02-23T20:47:10.201Z,8.90
2023-02-23T20:49:39.345Z,8.74
2023-02-23T20:52:07.684Z,8.90
2023-02-23T20:54:36.918Z,9.03
2023-02-23T20:57:08.332Z,9.01
2023-02-23T20:59:37.514Z,8.88
2023-02-23T21:02:08.484Z,8.84
2023-02-23T21:04:39.218Z,8.83
2023-02-23T21:07:09.684Z,8.99
2023-02-23T21:09:41.267Z,8.84
2023-02-23T21:12:10.839Z,8.67
2023-02-23T21:14:40.348Z,8.69
2023-02-23T21:17:10.212Z,8.69
2023-02-23T21:19:39.181Z,8.73
2023-02-23T21:22:07.959Z,8.65
2023-02-23T21:24:41.722Z,8.60
2023-02-23T21:27:13.263Z,8.64
2023-02-23T21:29:44.284Z,8.85
2023-02-23T21:32:14.919Z,8.78
2023-02-23T21:34:44.371Z,8.73
2023-02-23T21:37:13.148Z,8.68
2023-02-23T21:39:42.364Z,8.72
2023-02-23T21:42:10.942Z,8.67
2023-02-23T21:44:39.921Z,8.45
2023-02-23T21:47:08.124Z,8.44
2023-02-23T21:49:36.851Z,8.61
2023-02-23T21:52:05.256Z,8.73
2023-02-23T21:54:36.876Z,8.67
2023-02-23T21:57:05.625Z,8.60
2023-02-23T21:59:35.234Z,8.48
2023-02-23T22:02:04.025Z,8.67
2023-02-23T22:04:32.857Z,8.62
2023-02-23T22:07:05.701Z,8.63
2023-02-23T22:09:35.552Z,8.49
2023-02-23T22:12:05.798Z,8.36
2023-02-23T22:14:34.328Z,8.64
2023-02-23T22:17:04.427Z,8.71
2023-02-23T22:19:33.163Z,8.66
2023-02-23T22:22:01.942Z,8.61
2023-02-23T22:24:31.060Z,8.64
2023-02-23T22:27:01.521Z,8.67
2023-02-23T22:29:31.099Z,8.58
2023-02-23T22:32:00.185Z,8.63
2023-02-23T22:34:30.628Z,8.48
2023-02-23T22:36:58.958Z,8.60
2023-02-23T22:39:27.417Z,8.77
2023-02-23T22:41:56.446Z,8.67
2023-02-23T22:44:25.124Z,8.73
2023-02-23T22:46:54.331Z,8.86
2023-02-23T22:49:27.416Z,8.90
2023-02-23T22:51:56.445Z,9.02
2023-02-23T22:54:25.718Z,8.96
2023-02-23T22:56:55.219Z,8.97
2023-02-23T22:59:23.381Z,9.06
2023-02-23T23:01:51.541Z,9.07
2023-02-23T23:04:22.407Z,9.07
2023-02-23T23:06:51.057Z,9.08
2023-02-23T23:09:21.782Z,9.07
2023-02-23T23:11:54.058Z,9.17
2023-02-23T23:14:23.899Z,9.19
2023-02-23T23:16:52.237Z,9.24
2023-02-23T23:19:24.904Z,9.29
2023-02-23T23:21:56.140Z,9.42
2023-02-23T23:24:25.817Z,9.54
2023-02-23T23:27:01.316Z,9.64
2023-02-23T23:29:32.833Z,9.57
2023-02-23T23:32:02.953Z,9.58
2023-02-23T23:34:34.472Z,9.70
2023-02-23T23:37:03.361Z,9.76
2023-02-23T23:39:32.755Z,9.79
2023-02-23T23:42:02.278Z,9.79
2023-02-23T23:44:34.037Z,9.85
2023-02-23T23:47:05.695Z,9.91
2023-02-23T23:49:40.333Z,9.85
2023-02-23T23:52:09.196Z,9.81
2023-02-23T23:54:39.466Z,9.71
2023-02-23T23:57:08.416Z,9.66
2023-02-23T23:59:41.817Z,9.78
